Terminal Aerodrome Forecast
Issued by NWS

Home | Current Version | Previous Version | Text Only | Print | Product List | Glossary On
Versions: 1 2 3 4 5 6 7 8 9 10 11 12
000
FTUS45 KVEF 190534
TAFDAG
TAF
KDAG 190534Z 1906/2006 26008KT P6SM BKN250
     FM191900 26014G24KT P6SM BKN250
     FM200200 25020G30KT P6SM SCT120 BKN250=

USA.gov is the U.S. government's official web portal to all federal, state and local government web resources and services.